Aurora, OR

10:29 PM PDT on August 29, 2016 (GMT -0700)
Butteville | | Change Station

Elev 180 ft 45.24 °N, 122.85 °W | Updated 4 seconds ago

Clear
Clear
59.4 °F
Feels Like 59.4 °F
N
1.5
Wind Variable Wind from South
Gusts 3.1 mph

Today
High -- | Low -- °F
--% Chance of Precip.
Yesterday
High -- | Low -- °F
Precip. -- in
Pressure 30.03 in
Visibility 10.0 miles
Clouds Clear
Dew Point 48 °F
Humidity 65%
Rainfall 0.00 in
Snow Depth Not available.
6:30 AM 7:52 PM
Waning Crescent, 5% visible
METAR KUAO 300453Z AUTO 22006KT 10SM CLR 16/11 A3003 RMK AO2 SLP169 T01560106
Pressure 30.03 in
Visibility 10.0 miles
Clouds Clear
Dew Point 48 °F
Humidity 65%
Rainfall 0.00 in
Snow Depth Not available.
6:30 AM 7:52 PM
Waning Crescent, 5% visible
METAR KUAO 300453Z AUTO 22006KT 10SM CLR 16/11 A3003 RMK AO2 SLP169 T01560106

10-Day Weather Forecast

Almanac

Astronomy

Aug. 29, 2016 Rise Set
Actual Time
Civil Twilight
Nautical Twilight
Astronomical Twilight
Moon
Length of Visible Light
Length of Day
Tomorrow will be .
, % of the Moon is Illuminated

Today's Extremes

State Highs State Lows

Community

WunderPhotos

Upload Photos

1,935,793 photos uploaded!

WunderBlog® & News

Nearby

Air Quality

  Air Quality AQ Index Pollutant
Not available.

Snow Depth

Station Depth Elevation

Earthquake Activity

City Distance Mag. Time & Date
Minimum magnitude displayed is 2.5.

Coastal Water Temperatures

Place Temperature

Stations

Nearby Weather Stations

Station Location Temp. Windchill Dew Point Humidity Wind Precip. Elev Updated Type
                   

Watches & Warnings

There are currently no watches in effect.